Time;durP1;ratioP1;P1;durP2;ratioP2;P2;SDS_P1;SDS_P2;PMS_P1;PMS_P2;Temp;Humidity;BMP_temperature;BMP_pressure;BME280_temperature;BME280_humidity;BME280_pressure;Samples;Min_cycle;Max_cycle;Signal;HPM_P1;HPM_P2
2022/08/12 00:43:26;;;;;;;8.07;2.78;;;;;;;19.56;52.14;101422.53;6025975;28;20434;-68
2022/08/12 00:46:31;;;;;;;4.32;2.45;;;;;;;19.25;52.41;101411.06;6026122;28;20022;-67
2022/08/12 00:49:29;;;;;;;5.55;2.63;;;;;;;19.28;53.22;101405.31;6039892;28;20117;-67
2022/08/12 00:52:24;;;;;;;6.85;2.63;;;;;;;19.17;53.02;101397.72;6025394;28;20034;-65
2022/08/12 00:55:20;;;;;;;8.27;2.72;;;;;;;19.07;53.22;101400.69;6025760;28;20037;-65
2022/08/12 00:58:17;;;;;;;4.35;2.33;;;;;;;19.01;54.38;101396.88;6025888;28;20030;-67
2022/08/12 01:01:13;;;;;;;5.80;2.88;;;;;;;18.93;54.21;101406.88;6024936;28;20080;-65
2022/08/12 01:13:58;;;;;;;5.13;2.53;;;;;;;18.80;55.47;101404.84;6025809;28;20058;-65
2022/08/12 01:16:55;;;;;;;6.28;2.35;;;;;;;18.85;55.39;101401.59;6025439;28;20062;-66
2022/08/12 01:19:54;;;;;;;4.40;2.47;;;;;;;18.42;55.45;101403.13;6025320;28;20362;-66
2022/08/12 01:23:10;;;;;;;4.68;2.47;;;;;;;18.47;55.71;101402.56;6024579;28;20378;-68
2022/08/12 01:26:07;;;;;;;6.95;2.40;;;;;;;18.37;55.41;101406.31;6023980;28;20389;-67
2022/08/12 01:29:03;;;;;;;5.55;2.92;;;;;;;18.16;56.40;101413.38;6016630;28;20034;-67
2022/08/12 01:32:04;;;;;;;4.85;2.60;;;;;;;18.19;56.57;101410.31;6020182;28;20085;-64
2022/08/12 01:35:00;;;;;;;4.13;2.72;;;;;;;18.15;56.33;101417.09;6024911;28;20030;-67
2022/08/12 01:38:04;;;;;;;4.22;2.90;;;;;;;18.07;57.78;101411.75;6025230;28;20038;-65
2022/08/12 01:41:01;;;;;;;7.38;2.88;;;;;;;17.93;57.57;101405.31;6023995;28;20042;-67
2022/08/12 01:43:59;;;;;;;8.68;2.70;;;;;;;18.09;57.31;101409.72;6025072;28;20145;-66
2022/08/12 01:47:29;;;;;;;5.28;2.58;;;;;;;17.82;57.96;101414.59;6024452;28;20458;-67
2022/08/12 01:50:35;;;;;;;4.40;2.85;;;;;;;17.82;57.94;101408.38;6021606;28;20048;-67
2022/08/12 01:53:56;;;;;;;7.90;3.13;;;;;;;17.63;58.40;101404.28;6024315;28;20045;-63
2022/08/12 01:56:58;;;;;;;5.20;2.90;;;;;;;17.46;59.28;101393.75;6024841;28;20030;-67
2022/08/12 02:00:03;;;;;;;5.00;2.72;;;;;;;17.39;59.14;101393.63;6024827;28;20034;-64
2022/08/12 02:03:30;;;;;;;5.10;2.85;;;;;;;17.51;59.58;101412.84;6024483;28;20037;-65
2022/08/12 02:13:20;;;;;;;4.68;2.83;;;;;;;17.37;60.00;101403.69;6012676;28;20054;-67
2022/08/12 02:16:40;;;;;;;5.10;3.10;;;;;;;17.43;59.76;101403.00;6024051;28;20128;-67
2022/08/12 02:19:53;;;;;;;5.15;3.00;;;;;;;17.37;59.95;101409.03;6024427;28;20466;-65
2022/08/12 02:22:48;;;;;;;;;;;;;;;17.53;59.69;101400.13;6023955;28;20044;-67
2022/08/12 02:25:45;;;;;;;5.35;2.63;;;;;;;17.36;59.57;101399.34;6024178;28;19914;-66
2022/08/12 02:28:40;;;;;;;5.45;2.95;;;;;;;17.27;59.26;101386.97;6023489;28;20057;-67
2022/08/12 02:31:36;;;;;;;7.60;2.90;;;;;;;17.24;60.10;101403.38;6017340;28;20470;-65
2022/08/12 02:34:32;;;;;;;6.43;2.70;;;;;;;17.19;59.65;101384.31;6023411;28;20092;-65
2022/08/12 02:37:30;;;;;;;4.80;2.65;;;;;;;16.98;59.96;101378.69;6022941;28;20364;-67
2022/08/12 02:40:27;;;;;;;5.55;2.95;;;;;;;17.11;60.20;101403.09;6022994;28;20093;-65
2022/08/12 02:43:54;;;;;;;8.70;2.42;;;;;;;16.99;60.39;101396.41;6023482;28;20114;-64
2022/08/12 02:46:53;;;;;;;5.43;3.05;;;;;;;17.05;60.26;101393.06;6011424;28;20038;-67
2022/08/12 02:49:54;;;;;;;7.63;3.00;;;;;;;16.92;60.47;101387.41;6023029;28;20049;-67
2022/08/12 02:52:51;;;;;;;11.05;2.70;;;;;;;17.10;59.96;101393.38;6022714;28;20040;-64
2022/08/12 02:55:47;;;;;;;4.55;2.88;;;;;;;17.12;60.21;101388.69;6021854;28;20061;-65
2022/08/12 02:58:44;;;;;;;4.03;2.60;;;;;;;17.24;60.00;101371.22;6022028;28;20045;-66
2022/08/12 03:01:46;;;;;;;4.28;2.80;;;;;;;17.25;60.03;101380.94;6021470;28;20026;-66
2022/08/12 03:04:45;;;;;;;5.05;2.70;;;;;;;17.26;59.66;101375.41;6022100;28;20061;-67
2022/08/12 03:07:47;;;;;;;4.88;2.83;;;;;;;17.34;59.38;101382.56;6022004;28;20033;-66
2022/08/12 03:10:43;;;;;;;6.60;2.42;;;;;;;17.50;59.97;101374.44;6021062;28;20034;-66
2022/08/12 03:13:41;;;;;;;4.70;2.55;;;;;;;17.70;60.54;101388.31;6017144;28;20031;-66
2022/08/12 03:16:38;;;;;;;5.65;2.83;;;;;;;17.86;60.03;101393.59;6014144;28;20039;-67
2022/08/12 03:19:36;;;;;;;5.05;2.92;;;;;;;17.73;60.21;101388.81;6021635;28;20058;-66
2022/08/12 03:22:33;;;;;;;6.28;2.50;;;;;;;17.69;60.60;101386.66;6013478;28;20041;-67
2022/08/12 03:25:33;;;;;;;5.75;2.95;;;;;;;17.59;60.08;101378.81;6017994;28;20045;-64
2022/08/12 03:28:49;;;;;;;6.10;3.00;;;;;;;17.60;59.34;101385.84;6021385;28;20362;-65
2022/08/12 03:31:44;;;;;;;10.02;4.53;;;;;;;17.60;60.69;101383.19;6022022;28;20038;-67
2022/08/12 03:34:41;;;;;;;9.88;3.20;;;;;;;17.58;59.40;101387.03;6015625;28;20042;-67
2022/08/12 03:37:38;;;;;;;7.90;3.50;;;;;;;17.37;60.82;101376.88;6022299;28;20046;-67
2022/08/12 04:00:54;;;;;;;3.03;2.28;;;;;;;17.34;61.29;101389.81;6021560;28;20450;-67
2022/08/12 04:03:53;;;;;;;6.50;2.75;;;;;;;17.24;60.50;101398.88;6015512;28;20031;-68
2022/08/12 04:06:49;;;;;;;6.85;2.83;;;;;;;16.85;60.87;101399.81;6021364;28;20061;-68
2022/08/12 04:09:45;;;;;;;6.45;2.88;;;;;;;16.92;60.89;101401.63;6021439;28;20137;-66
2022/08/12 04:15:54;;;;;;;3.80;2.70;;;;;;;16.56;60.85;101403.84;6023114;28;20478;-68
2022/08/12 04:18:51;;;;;;;7.63;2.85;;;;;;;16.69;60.54;101415.91;6026390;28;20022;-66
2022/08/12 04:21:47;;;;;;;7.38;2.70;;;;;;;16.40;61.35;101395.78;6024393;28;20750;-66
2022/08/12 04:24:43;;;;;;;4.85;2.75;;;;;;;16.45;61.38;101401.47;6025996;28;20030;-66
2022/08/12 04:27:42;;;;;;;8.18;2.85;;;;;;;16.47;60.96;101404.81;6025959;28;20073;-68
2022/08/12 04:30:39;;;;;;;5.35;3.08;;;;;;;16.49;61.85;101399.31;6025477;28;20363;-66
2022/08/12 04:33:34;;;;;;;4.65;2.72;;;;;;;16.77;61.20;101405.19;6026056;28;20081;-65
2022/08/12 04:36:30;;;;;;;7.70;2.80;;;;;;;16.89;60.34;101410.00;6024531;28;20042;-66
2022/08/12 04:39:26;;;;;;;5.30;2.97;;;;;;;16.91;59.62;101397.28;6026142;28;20049;-65
2022/08/12 04:42:24;;;;;;;5.90;2.78;;;;;;;16.76;60.37;101398.13;6023930;28;20625;-65
2022/08/12 04:45:19;;;;;;;5.00;2.80;;;;;;;16.67;60.77;101405.34;6025897;28;20030;-66
2022/08/12 04:48:15;;;;;;;5.72;3.00;;;;;;;16.60;61.11;101415.88;6025436;28;20060;-66
2022/08/12 04:51:10;;;;;;;8.93;3.73;;;;;;;16.71;60.69;101406.69;6024475;28;20035;-65
2022/08/12 04:54:05;;;;;;;5.60;3.20;;;;;;;17.30;59.38;101402.72;6025459;28;20109;-65
2022/08/12 04:57:01;;;;;;;8.83;3.07;;;;;;;17.70;57.62;101405.25;6025278;28;20038;-66
2022/08/12 04:59:56;;;;;;;6.00;2.85;;;;;;;17.70;57.61;101415.97;6025549;28;20027;-67
2022/08/12 05:02:51;;;;;;;7.63;2.87;;;;;;;17.97;57.22;101417.34;6024885;28;20356;-65
2022/08/12 05:05:47;;;;;;;8.95;3.10;;;;;;;18.24;56.71;101402.56;6025608;28;20049;-65
2022/08/12 05:08:42;;;;;;;5.93;2.85;;;;;;;18.48;54.99;101394.34;6025770;28;20081;-65
2022/08/12 05:11:37;;;;;;;5.45;3.28;;;;;;;18.35;55.95;101412.88;6024927;28;20030;-68
2022/08/12 05:14:33;;;;;;;7.33;2.80;;;;;;;18.70;54.78;101404.22;6025323;28;20524;-65
2022/08/12 05:17:28;;;;;;;10.20;2.90;;;;;;;18.92;54.27;101400.66;6025048;28;20701;-66
2022/08/12 05:20:24;;;;;;;4.93;2.50;;;;;;;18.93;54.07;101394.28;6024748;28;20488;-67
2022/08/12 05:23:21;;;;;;;10.13;2.85;;;;;;;19.45;52.41;101414.91;6025178;28;20485;-65
2022/08/12 05:26:16;;;;;;;6.57;2.97;;;;;;;18.64;54.75;101413.03;6024788;28;20037;-65
2022/08/12 05:29:13;;;;;;;7.30;2.97;;;;;;;19.46;52.75;101406.66;6024485;28;20027;-65
2022/08/12 05:32:09;;;;;;;5.93;2.60;;;;;;;19.91;51.79;101421.72;6024095;28;20394;-67
2022/08/12 05:35:05;;;;;;;8.90;3.53;;;;;;;20.10;50.67;101415.72;6024178;28;20574;-67
2022/08/12 05:41:20;;;;;;;5.85;2.88;;;;;;;20.92;48.20;101410.69;6024290;28;20031;-64
2022/08/12 05:44:16;;;;;;;4.68;2.97;;;;;;;20.85;48.80;101409.78;6024872;28;20042;-67
2022/08/12 05:47:13;;;;;;;5.43;2.88;;;;;;;20.90;46.60;101403.84;6024873;28;20393;-68
2022/08/12 05:50:08;;;;;;;4.65;2.70;;;;;;;20.86;46.62;101422.25;6024030;28;20038;-65
2022/08/12 05:53:05;;;;;;;7.75;2.72;;;;;;;20.64;46.13;101410.69;6024459;28;20053;-66
2022/08/12 05:56:00;;;;;;;5.25;2.83;;;;;;;20.82;46.36;101426.34;6024696;28;20127;-66
2022/08/12 05:59:00;;;;;;;5.30;2.83;;;;;;;20.63;46.42;101418.94;6024709;28;20811;-67
2022/08/12 06:02:04;;;;;;;4.30;2.72;;;;;;;20.49;46.57;101423.38;6023628;28;20752;-65
2022/08/12 06:04:59;;;;;;;6.97;2.88;;;;;;;20.54;46.02;101436.28;6024293;28;20038;-67
2022/08/12 06:07:55;;;;;;;5.70;2.70;;;;;;;20.75;45.23;101423.63;6023952;28;20109;-65
2022/08/12 06:10:51;;;;;;;4.55;2.85;;;;;;;21.45;43.78;101427.22;6023661;28;20343;-66
2022/08/12 06:13:47;;;;;;;5.40;2.78;;;;;;;21.17;44.32;101425.41;6023700;28;20125;-66
2022/08/12 06:16:42;;;;;;;7.13;2.95;;;;;;;21.56;43.92;101441.00;6024088;28;20030;-65
2022/08/12 06:19:38;;;;;;;3.83;2.50;;;;;;;21.69;43.83;101418.63;6024037;28;20292;-66
2022/08/12 06:22:33;;;;;;;7.80;2.90;;;;;;;21.35;43.87;101439.25;6023256;28;20036;-66
2022/08/12 06:25:29;;;;;;;8.18;3.40;;;;;;;21.40;44.21;101435.94;6023815;28;20426;-65
2022/08/12 06:28:25;;;;;;;8.32;3.42;;;;;;;21.18;44.50;101447.81;6023545;28;20038;-66
2022/08/12 06:31:20;;;;;;;11.75;3.40;;;;;;;20.85;45.97;101427.84;6023020;28;20493;-66
2022/08/12 06:34:17;;;;;;;7.80;3.15;;;;;;;21.33;45.03;101441.28;6023489;28;20046;-66
2022/08/12 06:37:12;;;;;;;6.28;2.72;;;;;;;22.07;43.28;101436.03;6023122;28;20481;-66
2022/08/12 06:40:09;;;;;;;5.43;2.65;;;;;;;22.25;42.61;101430.91;6022094;28;20042;-67
2022/08/12 06:43:04;;;;;;;6.03;2.95;;;;;;;21.66;43.59;101435.25;6023184;28;20030;-65
2022/08/12 06:46:00;;;;;;;10.83;2.90;;;;;;;22.84;41.64;101443.69;6023484;28;20026;-65
2022/08/12 06:48:57;;;;;;;6.00;2.65;;;;;;;23.06;40.62;101439.72;6023417;28;20045;-65
2022/08/12 06:51:54;;;;;;;4.38;2.58;;;;;;;23.00;40.17;101446.78;6022277;28;20156;-66
2022/08/12 06:54:50;;;;;;;7.60;2.88;;;;;;;23.21;39.69;101440.31;6022818;28;20109;-67
2022/08/12 06:57:56;;;;;;;9.98;2.83;;;;;;;23.03;39.68;101450.97;6022791;28;20040;-66
2022/08/12 07:00:52;;;;;;;5.10;2.28;;;;;;;23.13;39.98;101434.31;6022330;28;20462;-66
2022/08/12 07:03:49;;;;;;;7.60;3.00;;;;;;;23.37;39.80;101448.00;6022332;28;20462;-67
2022/08/12 07:06:45;;;;;;;6.00;2.65;;;;;;;23.22;39.24;101447.41;6022669;28;20069;-64
2022/08/12 07:09:42;;;;;;;7.63;2.67;;;;;;;23.18;39.26;101431.81;6023035;28;20064;-65
2022/08/12 07:12:37;;;;;;;5.22;2.38;;;;;;;23.42;39.75;101432.00;6021714;28;20796;-66
2022/08/12 07:15:33;;;;;;;6.53;2.70;;;;;;;23.73;38.01;101430.44;6022654;28;20037;-66
2022/08/12 07:18:31;;;;;;;5.03;2.22;;;;;;;23.90;37.94;101435.13;6022314;28;20026;-67
2022/08/12 07:21:32;;;;;;;6.18;2.17;;;;;;;24.23;37.70;101427.69;6021851;28;20033;-66
2022/08/12 07:24:27;;;;;;;6.10;2.33;;;;;;;24.38;37.40;101446.34;6022372;28;20038;-66
2022/08/12 07:27:23;;;;;;;7.87;2.83;;;;;;;24.26;37.57;101442.69;6022193;28;20041;-65
2022/08/12 07:30:18;;;;;;;5.27;2.27;;;;;;;24.34;37.28;101434.28;6021742;28;20023;-64
2022/08/12 07:33:15;;;;;;;4.67;2.67;;;;;;;24.69;36.84;101438.22;6022242;28;20367;-64
2022/08/12 07:36:15;;;;;;;5.45;2.17;;;;;;;24.94;36.43;101431.97;6022542;28;20026;-67
2022/08/12 07:39:12;;;;;;;9.00;2.40;;;;;;;24.99;36.15;101448.44;6021841;28;20066;-66
2022/08/12 07:42:07;;;;;;;3.85;2.13;;;;;;;25.52;34.84;101455.00;6021516;28;20116;-66
2022/08/12 07:45:03;;;;;;;4.00;2.30;;;;;;;25.54;35.25;101449.38;6022241;28;20026;-68
2022/08/12 07:47:59;;;;;;;4.82;1.92;;;;;;;25.77;35.07;101458.47;6021794;28;20269;-67
2022/08/12 07:50:54;;;;;;;4.63;2.35;;;;;;;25.61;34.83;101455.53;6022706;28;20057;-65
2022/08/12 07:53:50;;;;;;;4.40;2.10;;;;;;;26.38;33.19;101449.34;6026622;28;20034;-68
2022/08/12 07:56:45;;;;;;;6.82;2.03;;;;;;;26.26;32.83;101440.28;6026885;28;20389;-67
2022/08/12 07:59:41;;;;;;;5.40;2.40;;;;;;;26.69;32.39;101445.53;6027165;28;20069;-67
2022/08/12 08:02:36;;;;;;;5.73;2.33;;;;;;;26.82;31.79;101445.34;6025709;28;20277;-68
2022/08/12 08:05:36;;;;;;;7.00;2.38;;;;;;;26.34;33.02;101448.13;6026458;28;20320;-66
2022/08/12 08:08:31;;;;;;;12.88;2.42;;;;;;;26.20;33.49;101435.81;6026160;28;20081;-66
2022/08/12 08:14:40;;;;;;;4.63;2.35;;;;;;;27.18;33.16;101439.63;6026229;28;20430;-67
2022/08/12 08:17:37;;;;;;;3.33;2.10;;;;;;;27.56;31.66;101447.31;6026543;28;20034;-66
2022/08/12 08:20:36;;;;;;;5.70;2.13;;;;;;;28.16;30.22;101442.31;6025989;28;20382;-67
2022/08/12 08:26:49;;;;;;;4.75;2.30;;;;;;;27.88;31.45;101440.41;6026454;28;20117;-67
2022/08/12 08:29:44;;;;;;;5.53;2.03;;;;;;;28.37;30.56;101443.53;6026169;28;20466;-66
2022/08/12 08:32:39;;;;;;;4.43;2.13;;;;;;;28.57;30.49;101433.78;6026037;28;20101;-66
2022/08/12 08:35:36;;;;;;;4.20;2.10;;;;;;;28.29;29.70;101442.84;6026532;28;20142;-67
2022/08/12 08:38:31;;;;;;;7.63;2.15;;;;;;;28.35;30.47;101430.13;6026135;28;20121;-66
2022/08/12 08:44:41;;;;;;;3.25;1.95;;;;;;;28.73;27.50;101429.44;6025955;28;20050;-67
2022/08/12 08:47:42;;;;;;;2.58;1.83;;;;;;;28.72;28.71;101431.38;6026022;28;20022;-67
2022/08/12 08:50:37;;;;;;;5.32;2.03;;;;;;;28.70;28.53;101438.16;6025008;28;20038;-68
2022/08/12 08:53:33;;;;;;;4.17;2.17;;;;;;;28.70;28.02;101429.94;6025954;28;20046;-66
2022/08/12 08:56:29;;;;;;;4.17;1.80;;;;;;;28.83;28.15;101425.00;6025623;28;20469;-65
2022/08/12 08:59:24;;;;;;;4.07;2.10;;;;;;;29.36;26.08;101445.47;6025895;28;20431;-65
2022/08/12 09:02:19;;;;;;;5.60;1.80;;;;;;;29.07;26.29;101432.97;6023868;28;20034;-67
2022/08/12 09:05:16;;;;;;;3.77;1.70;;;;;;;28.89;27.04;101436.81;6025279;28;20080;-65
2022/08/12 09:08:11;;;;;;;3.47;1.75;;;;;;;28.50;27.12;101437.75;6025689;28;20034;-66
2022/08/12 09:14:20;;;;;;;3.67;1.70;;;;;;;29.16;26.44;101415.91;6025405;28;20462;-67
2022/08/12 09:17:17;;;;;;;3.17;1.50;;;;;;;29.05;25.80;101416.84;6025212;28;20038;-66
2022/08/12 09:20:14;;;;;;;4.68;1.70;;;;;;;29.30;25.91;101427.31;6024557;28;20030;-66
2022/08/12 09:23:11;;;;;;;6.07;2.20;;;;;;;29.00;25.96;101414.03;6025064;28;20496;-67
2022/08/12 09:26:08;;;;;;;6.32;1.88;;;;;;;28.74;26.78;101417.44;6024705;28;20022;-65
2022/08/12 09:29:03;;;;;;;4.45;1.73;;;;;;;28.65;27.03;101418.91;6025007;28;20125;-65
2022/08/12 09:31:59;;;;;;;5.40;1.75;;;;;;;28.43;27.24;101413.34;6023728;28;20092;-66
2022/08/12 09:34:54;;;;;;;4.00;1.70;;;;;;;28.67;27.24;101408.59;6024943;28;20433;-65
2022/08/12 09:37:53;;;;;;;5.23;1.73;;;;;;;28.77;26.93;101403.28;6024957;28;20089;-67
2022/08/12 09:40:48;;;;;;;2.58;1.52;;;;;;;28.62;26.80;101403.03;6024733;28;20406;-66
2022/08/12 09:46:58;;;;;;;2.80;1.52;;;;;;;28.78;26.42;101404.97;6024200;28;20034;-66
2022/08/12 09:49:54;;;;;;;3.10;1.67;;;;;;;28.54;26.91;101411.59;6024264;28;20034;-66
2022/08/12 09:53:07;;;;;;;4.55;1.50;;;;;;;29.06;26.47;101404.81;6023204;28;20274;-66
2022/08/12 09:56:03;;;;;;;3.00;1.70;;;;;;;29.29;26.73;101395.63;6024386;28;20088;-66
2022/08/12 09:58:58;;;;;;;5.20;1.98;;;;;;;29.67;26.21;101392.00;6024157;28;20030;-66
2022/08/12 10:01:54;;;;;;;8.03;1.97;;;;;;;29.63;25.50;101388.13;6023580;28;20041;-67
2022/08/12 10:04:50;;;;;;;2.53;1.60;;;;;;;29.65;26.36;101370.38;6023971;28;20027;-64
2022/08/12 10:07:45;;;;;;;4.87;1.80;;;;;;;29.30;25.61;101370.75;6023646;28;20041;-66
2022/08/12 10:13:56;;;;;;;5.13;1.80;;;;;;;30.11;25.03;101379.09;6024317;28;20042;-66
2022/08/12 10:16:53;;;;;;;3.43;1.50;;;;;;;29.72;25.13;101378.38;6024186;28;20030;-66
2022/08/12 10:19:50;;;;;;;3.88;1.60;;;;;;;29.74;24.54;101363.38;6023941;28;20308;-65
2022/08/12 10:22:58;;;;;;;4.03;1.80;;;;;;;29.70;24.87;101358.69;6023761;28;20121;-65
2022/08/12 10:32:23;;;;;;;4.40;1.70;;;;;;;29.74;24.83;101354.31;6023146;28;20034;-65
2022/08/12 10:35:18;;;;;;;4.97;1.97;;;;;;;29.65;24.70;101353.16;6024000;28;20030;-67
2022/08/12 10:38:16;;;;;;;3.15;1.50;;;;;;;29.73;23.95;101353.53;6023497;28;20030;-65
2022/08/12 10:44:27;;;;;;;3.05;1.60;;;;;;;29.66;24.11;101349.31;6023496;28;20042;-66
2022/08/12 10:47:23;;;;;;;2.88;1.52;;;;;;;29.81;23.98;101338.59;6023873;28;20069;-66
2022/08/12 10:50:21;;;;;;;2.90;1.60;;;;;;;29.86;24.66;101339.47;6022733;28;20038;-66
2022/08/12 10:53:19;;;;;;;2.83;1.63;;;;;;;29.88;24.16;101337.28;6023076;28;20080;-66
2022/08/12 10:56:15;;;;;;;5.38;2.00;;;;;;;29.41;24.73;101337.00;6023284;28;20041;-67
2022/08/12 10:59:10;;;;;;;4.43;1.67;;;;;;;29.74;24.50;101340.66;6023024;28;20116;-65
2022/08/12 11:02:06;;;;;;;4.57;2.00;;;;;;;29.42;24.17;101335.09;6022694;28;20261;-66
2022/08/12 11:05:02;;;;;;;3.97;1.92;;;;;;;29.19;25.18;101327.94;6022806;28;20056;-67
2022/08/12 11:07:57;;;;;;;3.65;1.40;;;;;;;29.14;25.24;101330.63;6022613;28;20487;-66
2022/08/12 11:10:53;;;;;;;3.10;1.70;;;;;;;29.83;24.69;101323.56;6022326;28;20042;-66
2022/08/12 11:13:48;;;;;;;4.20;1.67;;;;;;;30.04;24.04;101319.09;6017761;28;20137;-66
2022/08/12 11:16:43;;;;;;;7.47;1.57;;;;;;;29.96;24.71;101290.31;6022858;28;20045;-67
2022/08/12 11:19:40;;;;;;;5.03;1.58;;;;;;;30.49;24.46;101316.75;6022618;28;20541;-66
2022/08/12 11:22:36;;;;;;;4.63;1.70;;;;;;;30.04;24.57;101324.56;6021667;28;20040;-65
2022/08/12 11:25:31;;;;;;;3.20;1.53;;;;;;;30.29;24.31;101335.75;6022015;28;20030;-66
2022/08/12 11:28:26;;;;;;;2.40;1.30;;;;;;;30.41;24.39;101316.44;6022172;28;20047;-66
2022/08/12 11:31:22;;;;;;;2.93;1.70;;;;;;;30.21;23.25;101314.34;6022411;28;20297;-66
2022/08/12 11:34:17;;;;;;;4.95;2.08;;;;;;;30.44;23.23;101308.50;6022322;28;20332;-66
2022/08/12 11:37:13;;;;;;;9.07;1.77;;;;;;;30.91;23.32;101315.94;6022479;28;20393;-67
2022/08/12 11:40:09;;;;;;;5.75;1.48;;;;;;;30.58;24.22;101298.75;6021729;28;20466;-66
2022/08/12 11:43:04;;;;;;;5.15;1.60;;;;;;;30.12;23.77;101299.47;6022012;28;20046;-66
2022/08/12 11:45:59;;;;;;;4.33;1.80;;;;;;;30.08;24.26;101306.56;6022239;28;20477;-65
2022/08/12 11:48:55;;;;;;;3.97;1.80;;;;;;;29.79;24.87;101305.16;6018716;28;20039;-66
2022/08/12 11:51:50;;;;;;;3.90;1.67;;;;;;;30.16;24.55;101297.03;6021472;28;20748;-66
2022/08/12 11:54:46;;;;;;;5.37;1.90;;;;;;;29.97;24.44;101280.19;6021934;28;20115;-66
2022/08/12 11:57:51;;;;;;;7.07;1.70;;;;;;;29.79;23.99;101297.81;6021881;28;20284;-65
2022/08/12 12:00:46;;;;;;;4.45;1.60;;;;;;;29.73;24.30;101282.41;6021525;28;20034;-66
2022/08/12 12:03:42;;;;;;;5.10;1.63;;;;;;;29.74;24.29;101275.00;6021988;28;20516;-66
2022/08/12 12:06:37;;;;;;;2.92;1.33;;;;;;;30.09;23.77;101294.50;6021948;28;20157;-66
2022/08/12 12:09:32;;;;;;;3.28;1.50;;;;;;;30.19;22.79;101283.69;6021612;28;20038;-66
2022/08/12 12:12:27;;;;;;;8.27;1.60;;;;;;;29.81;24.35;101281.97;6020721;28;20070;-66
2022/08/12 12:15:23;;;;;;;4.03;1.57;;;;;;;30.17;23.61;101263.94;6021749;28;20033;-66
2022/08/12 12:18:24;;;;;;;4.60;1.63;;;;;;;30.24;23.44;101275.50;6021489;28;20099;-66
2022/08/12 12:21:19;;;;;;;9.82;2.05;;;;;;;30.71;22.73;101269.25;6021313;28;20045;-67
2022/08/12 12:24:16;;;;;;;5.32;1.83;;;;;;;30.91;23.04;101270.19;6021912;28;20038;-66
2022/08/12 12:27:12;;;;;;;4.70;1.77;;;;;;;31.05;23.09;101259.59;6021346;28;20033;-66
2022/08/12 12:30:07;;;;;;;3.08;1.35;;;;;;;31.19;22.44;101260.75;6020921;28;20034;-66
2022/08/12 12:33:04;;;;;;;3.65;1.67;;;;;;;31.00;21.66;101259.56;6021111;28;20038;-67
2022/08/12 12:35:59;;;;;;;3.60;1.60;;;;;;;31.28;21.07;101252.81;6021714;28;20421;-67
2022/08/12 12:38:54;;;;;;;8.60;1.67;;;;;;;31.20;21.68;101248.69;6025770;28;20125;-67
2022/08/12 12:41:50;;;;;;;2.70;1.70;;;;;;;31.00;21.84;101249.44;6024964;28;20035;-66
2022/08/12 12:44:45;;;;;;;6.17;1.80;;;;;;;30.40;23.01;101249.91;6025720;28;20042;-65
2022/08/12 12:48:13;;;;;;;2.90;1.73;;;;;;;30.22;23.06;101247.56;6025488;28;20045;-67
2022/08/12 12:51:15;;;;;;;5.15;1.58;;;;;;;30.65;22.99;101227.31;6025094;28;20041;-67
2022/08/12 12:54:11;;;;;;;5.28;1.75;;;;;;;31.03;22.86;101223.41;6025274;28;20073;-66
2022/08/12 12:57:06;;;;;;;4.00;1.50;;;;;;;31.18;21.95;101231.66;6025871;28;20192;-66
2022/08/12 13:00:15;;;;;;;3.37;1.43;;;;;;;30.97;22.06;101224.47;6025445;28;20522;-67
2022/08/12 13:03:11;;;;;;;3.78;1.58;;;;;;;30.92;21.71;101232.69;6015881;28;20031;-66
2022/08/12 13:06:07;;;;;;;3.60;1.52;;;;;;;30.61;21.92;101232.50;6022324;28;20113;-67
2022/08/12 13:09:02;;;;;;;5.50;1.70;;;;;;;30.96;22.29;101233.78;6025286;28;20038;-67
2022/08/12 13:11:59;;;;;;;3.38;1.67;;;;;;;30.79;22.46;101222.19;6024948;28;20187;-67
2022/08/12 13:14:56;;;;;;;4.07;1.85;;;;;;;30.91;22.41;101225.50;6025390;28;20030;-66
2022/08/12 13:17:55;;;;;;;3.55;1.65;;;;;;;31.31;21.92;101220.19;6025529;28;20058;-66
2022/08/12 13:20:50;;;;;;;2.95;1.63;;;;;;;31.24;22.71;101222.38;6024500;28;20609;-67
2022/08/12 13:23:48;;;;;;;2.42;1.58;;;;;;;31.07;21.48;101224.50;6025227;28;20114;-66
2022/08/12 13:26:44;;;;;;;3.38;1.60;;;;;;;30.75;22.17;101227.38;6024941;28;20026;-67
2022/08/12 13:29:39;;;;;;;4.57;1.85;;;;;;;30.61;22.36;101227.03;6024677;28;20411;-66
2022/08/12 13:32:36;;;;;;;3.90;1.63;;;;;;;30.90;22.70;101221.16;6024630;28;20034;-66
2022/08/12 13:35:35;;;;;;;5.13;1.38;;;;;;;30.93;21.76;101215.16;6024711;28;20057;-66
2022/08/12 13:38:40;;;;;;;4.63;1.73;;;;;;;31.20;22.00;101210.31;6025237;28;20026;-66
2022/08/12 13:41:35;;;;;;;4.05;1.75;;;;;;;30.96;21.95;101211.84;6024580;28;20046;-67
2022/08/12 13:44:31;;;;;;;7.07;1.70;;;;;;;31.22;21.84;101208.13;6024856;28;20022;-67
2022/08/12 13:47:26;;;;;;;2.50;1.40;;;;;;;31.06;21.93;101211.91;6024798;28;20453;-66
2022/08/12 13:50:32;;;;;;;2.67;1.50;;;;;;;31.29;21.60;101200.44;6023121;28;20057;-67
2022/08/12 13:53:28;;;;;;;3.78;1.63;;;;;;;31.45;22.11;101202.13;6024650;28;20041;-66
2022/08/12 13:56:23;;;;;;;4.80;1.60;;;;;;;31.91;21.30;101204.94;6024629;28;20532;-66
2022/08/12 13:59:20;;;;;;;4.35;1.90;;;;;;;31.14;22.11;101205.91;6024339;28;20041;-66
2022/08/12 14:02:16;;;;;;;5.57;1.42;;;;;;;31.56;21.46;101190.09;6023902;28;20418;-66
2022/08/12 14:05:11;;;;;;;3.25;1.50;;;;;;;31.49;22.20;101200.53;6024020;28;20089;-67
2022/08/12 14:08:08;;;;;;;6.57;1.80;;;;;;;30.93;22.73;101206.94;6024387;28;20477;-66
2022/08/12 14:11:03;;;;;;;7.88;1.75;;;;;;;30.81;22.71;101187.13;6023792;28;20101;-67
2022/08/12 14:13:59;;;;;;;5.97;1.70;;;;;;;30.76;22.43;101189.84;6024260;28;20062;-66
2022/08/12 14:16:55;;;;;;;4.47;1.52;;;;;;;31.27;21.60;101180.72;6024522;28;20594;-66
2022/08/12 14:23:04;;;;;;;7.40;1.67;;;;;;;31.49;21.64;101177.75;6024182;28;20469;-66
2022/08/12 14:26:01;;;;;;;3.80;1.58;;;;;;;31.56;21.01;101186.53;6023889;28;20094;-67
2022/08/12 14:28:57;;;;;;;3.95;1.70;;;;;;;31.06;21.55;101185.34;6024310;28;20042;-67
2022/08/12 14:31:52;;;;;;;5.33;1.47;;;;;;;31.61;21.50;101190.09;6023117;28;20038;-66
2022/08/12 14:34:51;;;;;;;6.17;1.30;;;;;;;31.92;21.35;101184.59;6023921;28;20646;-66
2022/08/12 14:37:48;;;;;;;7.72;1.73;;;;;;;31.29;21.88;101173.03;6023450;28;20482;-66
2022/08/12 14:40:44;;;;;;;4.78;1.63;;;;;;;32.10;21.55;101179.38;6023098;28;20462;-66
2022/08/12 14:43:40;;;;;;;4.90;1.70;;;;;;;32.40;21.06;101178.50;6023557;28;20046;-66
2022/08/12 14:46:36;;;;;;;5.75;1.40;;;;;;;32.17;20.91;101176.38;6023325;28;20037;-66
2022/08/12 14:49:31;;;;;;;3.03;1.27;;;;;;;32.34;20.82;101174.13;6023637;28;20034;-67
2022/08/12 14:52:26;;;;;;;3.17;1.13;;;;;;;32.21;20.70;101160.97;6023263;28;20370;-66
2022/08/12 14:55:22;;;;;;;6.77;1.60;;;;;;;32.29;20.17;101155.72;6023197;28;20030;-67
2022/08/12 14:58:18;;;;;;;1.87;1.27;;;;;;;32.31;20.18;101155.47;6023374;28;20372;-66
2022/08/12 15:04:28;;;;;;;1.60;1.02;;;;;;;31.97;20.60;101151.66;6023141;28;20470;-66
2022/08/12 15:07:26;;;;;;;1.65;1.13;;;;;;;31.94;21.05;101160.44;6022865;28;20027;-67
2022/08/12 15:10:21;;;;;;;4.53;1.27;;;;;;;33.06;19.77;101148.03;6022562;28;20489;-67
2022/08/12 15:13:18;;;;;;;2.77;1.10;;;;;;;32.57;20.45;101151.56;6023179;28;20229;-67
2022/08/12 15:16:15;;;;;;;1.67;1.10;;;;;;;32.05;20.08;101142.88;6023370;28;20269;-67
2022/08/12 15:19:10;;;;;;;1.63;1.10;;;;;;;32.34;20.17;101141.97;6022877;28;20058;-66
2022/08/12 15:22:05;;;;;;;2.37;1.20;;;;;;;32.25;20.21;101137.34;6021938;28;20041;-67
2022/08/12 15:25:01;;;;;;;3.20;1.13;;;;;;;31.36;20.90;101148.94;6023257;28;20763;-66
2022/08/12 15:27:58;;;;;;;2.67;1.20;;;;;;;31.41;21.35;101148.94;6022452;28;20038;-67
2022/08/12 15:30:56;;;;;;;2.55;1.10;;;;;;;31.62;21.05;101147.84;6022191;28;20121;-66
2022/08/12 15:33:54;;;;;;;3.92;1.30;;;;;;;31.81;20.12;101157.19;6022524;28;20037;-67
2022/08/12 15:36:49;;;;;;;3.08;1.20;;;;;;;31.83;20.94;101149.47;6022519;28;20022;-66
2022/08/12 15:39:44;;;;;;;3.50;1.00;;;;;;;32.09;20.05;101152.22;6023038;28;20108;-66
2022/08/12 15:42:43;;;;;;;1.70;1.00;;;;;;;32.89;19.83;101149.19;6021912;28;20033;-67
2022/08/12 15:45:39;;;;;;;2.53;1.08;;;;;;;31.94;20.52;101154.94;6022342;28;20036;-66